sensor_id;sensor_type;location;lat;lon;timestamp;temperature;humidity
25300;DHT22;13241;51.208;4.432;2022-10-24T00:01:25;17.00;99.90
25300;DHT22;13241;51.208;4.432;2022-10-24T00:03:52;17.10;99.90
25300;DHT22;13241;51.208;4.432;2022-10-24T00:06:19;16.90;99.90
25300;DHT22;13241;51.208;4.432;2022-10-24T00:08:47;17.00;99.90
25300;DHT22;13241;51.208;4.432;2022-10-24T00:11:17;17.00;99.90
25300;DHT22;13241;51.208;4.432;2022-10-24T00:13:44;16.90;99.90
25300;DHT22;13241;51.208;4.432;2022-10-24T00:16:14;16.90;99.90
25300;DHT22;13241;51.208;4.432;2022-10-24T00:18:41;16.90;99.90
25300;DHT22;13241;51.208;4.432;2022-10-24T00:21:08;17.00;99.90
25300;DHT22;13241;51.208;4.432;2022-10-24T00:23:35;16.90;99.90
25300;DHT22;13241;51.208;4.432;2022-10-24T00:26:03;16.90;99.90
25300;DHT22;13241;51.208;4.432;2022-10-24T00:28:33;17.00;99.90
25300;DHT22;13241;51.208;4.432;2022-10-24T00:31:00;16.90;99.90
25300;DHT22;13241;51.208;4.432;2022-10-24T00:33:27;17.00;99.90
25300;DHT22;13241;51.208;4.432;2022-10-24T00:35:54;17.00;99.90
25300;DHT22;13241;51.208;4.432;2022-10-24T00:38:21;17.00;99.90
25300;DHT22;13241;51.208;4.432;2022-10-24T00:40:48;16.70;99.90
25300;DHT22;13241;51.208;4.432;2022-10-24T00:43:22;16.80;99.90
25300;DHT22;13241;51.208;4.432;2022-10-24T00:45:52;16.70;99.90
25300;DHT22;13241;51.208;4.432;2022-10-24T00:48:39;16.70;99.90
25300;DHT22;13241;51.208;4.432;2022-10-24T00:53:50;16.90;99.90
25300;DHT22;13241;51.208;4.432;2022-10-24T00:56:20;16.90;99.90
25300;DHT22;13241;51.208;4.432;2022-10-24T00:58:49;16.90;99.90
25300;DHT22;13241;51.208;4.432;2022-10-24T01:01:17;16.90;99.90
25300;DHT22;13241;51.208;4.432;2022-10-24T01:03:44;16.90;99.90
25300;DHT22;13241;51.208;4.432;2022-10-24T01:11:44;16.70;99.90
25300;DHT22;13241;51.208;4.432;2022-10-24T01:14:39;16.70;99.90
25300;DHT22;13241;51.208;4.432;2022-10-24T01:17:16;16.80;99.90
25300;DHT22;13241;51.208;4.432;2022-10-24T01:22:31;16.70;99.90
25300;DHT22;13241;51.208;4.432;2022-10-24T01:28:23;16.70;99.90
25300;DHT22;13241;51.208;4.432;2022-10-24T01:31:07;16.70;99.90
25300;DHT22;13241;51.208;4.432;2022-10-24T01:33:39;16.80;99.90
25300;DHT22;13241;51.208;4.432;2022-10-24T01:36:18;16.80;99.90
25300;DHT22;13241;51.208;4.432;2022-10-24T01:38:58;16.80;99.90
25300;DHT22;13241;51.208;4.432;2022-10-24T01:41:28;16.80;99.90
25300;DHT22;13241;51.208;4.432;2022-10-24T01:44:06;16.80;99.90
25300;DHT22;13241;51.208;4.432;2022-10-24T01:46:39;16.70;99.90
25300;DHT22;13241;51.208;4.432;2022-10-24T01:49:16;16.80;99.90
25300;DHT22;13241;51.208;4.432;2022-10-24T01:51:46;16.70;99.90
25300;DHT22;13241;51.208;4.432;2022-10-24T01:54:14;16.70;99.90
25300;DHT22;13241;51.208;4.432;2022-10-24T01:56:41;16.80;99.90
25300;DHT22;13241;51.208;4.432;2022-10-24T02:02:00;16.80;99.90
25300;DHT22;13241;51.208;4.432;2022-10-24T02:04:30;16.80;99.90
25300;DHT22;13241;51.208;4.432;2022-10-24T02:07:01;16.80;99.90
25300;DHT22;13241;51.208;4.432;2022-10-24T02:09:30;16.80;99.90
25300;DHT22;13241;51.208;4.432;2022-10-24T02:11:59;16.80;99.90
25300;DHT22;13241;51.208;4.432;2022-10-24T02:14:35;16.80;99.90
25300;DHT22;13241;51.208;4.432;2022-10-24T02:17:02;16.80;99.90
25300;DHT22;13241;51.208;4.432;2022-10-24T02:19:30;16.80;99.90
25300;DHT22;13241;51.208;4.432;2022-10-24T02:22:27;16.80;99.90
25300;DHT22;13241;51.208;4.432;2022-10-24T02:25:12;16.80;99.90
25300;DHT22;13241;51.208;4.432;2022-10-24T02:27:54;16.70;99.90
25300;DHT22;13241;51.208;4.432;2022-10-24T02:30:24;16.70;99.90
25300;DHT22;13241;51.208;4.432;2022-10-24T02:32:57;16.70;99.90
25300;DHT22;13241;51.208;4.432;2022-10-24T02:35:28;16.80;99.90
25300;DHT22;13241;51.208;4.432;2022-10-24T02:38:09;16.70;99.90
25300;DHT22;13241;51.208;4.432;2022-10-24T02:40:37;16.70;99.90
25300;DHT22;13241;51.208;4.432;2022-10-24T02:43:05;16.60;99.90
25300;DHT22;13241;51.208;4.432;2022-10-24T02:45:33;16.50;99.90
25300;DHT22;13241;51.208;4.432;2022-10-24T02:48:04;16.80;99.90
25300;DHT22;13241;51.208;4.432;2022-10-24T02:50:33;16.90;99.90
25300;DHT22;13241;51.208;4.432;2022-10-24T02:53:00;16.90;99.90
25300;DHT22;13241;51.208;4.432;2022-10-24T02:55:29;17.00;99.90
25300;DHT22;13241;51.208;4.432;2022-10-24T02:57:56;17.10;99.90
25300;DHT22;13241;51.208;4.432;2022-10-24T03:00:23;17.30;99.90
25300;DHT22;13241;51.208;4.432;2022-10-24T03:02:50;17.40;99.90
25300;DHT22;13241;51.208;4.432;2022-10-24T03:05:17;17.20;99.90
25300;DHT22;13241;51.208;4.432;2022-10-24T03:07:44;17.20;99.90
25300;DHT22;13241;51.208;4.432;2022-10-24T03:10:10;17.20;99.90
25300;DHT22;13241;51.208;4.432;2022-10-24T03:12:37;17.20;99.90
25300;DHT22;13241;51.208;4.432;2022-10-24T03:15:05;17.10;99.90
25300;DHT22;13241;51.208;4.432;2022-10-24T03:17:32;17.10;99.90
25300;DHT22;13241;51.208;4.432;2022-10-24T03:19:58;17.10;99.90
25300;DHT22;13241;51.208;4.432;2022-10-24T03:22:27;17.10;99.90
25300;DHT22;13241;51.208;4.432;2022-10-24T03:24:56;17.00;99.90
25300;DHT22;13241;51.208;4.432;2022-10-24T03:27:27;16.90;99.90
25300;DHT22;13241;51.208;4.432;2022-10-24T03:29:55;16.80;99.90
25300;DHT22;13241;51.208;4.432;2022-10-24T03:32:22;16.80;99.90
25300;DHT22;13241;51.208;4.432;2022-10-24T03:34:49;16.80;99.90
25300;DHT22;13241;51.208;4.432;2022-10-24T03:37:15;16.90;99.90
25300;DHT22;13241;51.208;4.432;2022-10-24T03:39:42;16.90;99.90
25300;DHT22;13241;51.208;4.432;2022-10-24T03:42:09;16.80;99.90
25300;DHT22;13241;51.208;4.432;2022-10-24T03:44:37;16.70;99.90
25300;DHT22;13241;51.208;4.432;2022-10-24T03:47:05;16.60;99.90
25300;DHT22;13241;51.208;4.432;2022-10-24T03:49:32;16.60;99.90
25300;DHT22;13241;51.208;4.432;2022-10-24T03:51:59;16.60;99.90
25300;DHT22;13241;51.208;4.432;2022-10-24T03:54:28;16.50;99.90
25300;DHT22;13241;51.208;4.432;2022-10-24T03:56:55;16.50;99.90
25300;DHT22;13241;51.208;4.432;2022-10-24T03:59:23;16.50;99.90
25300;DHT22;13241;51.208;4.432;2022-10-24T04:01:50;16.50;99.90
25300;DHT22;13241;51.208;4.432;2022-10-24T04:04:17;16.50;99.90
25300;DHT22;13241;51.208;4.432;2022-10-24T04:06:43;16.50;99.90
25300;DHT22;13241;51.208;4.432;2022-10-24T04:09:10;16.50;99.90
25300;DHT22;13241;51.208;4.432;2022-10-24T04:11:37;16.50;99.90
25300;DHT22;13241;51.208;4.432;2022-10-24T04:14:04;16.50;99.90
25300;DHT22;13241;51.208;4.432;2022-10-24T04:16:58;16.60;99.90
25300;DHT22;13241;51.208;4.432;2022-10-24T04:19:26;16.60;99.90
25300;DHT22;13241;51.208;4.432;2022-10-24T04:21:55;16.60;99.90
25300;DHT22;13241;51.208;4.432;2022-10-24T04:24:24;16.80;99.90
25300;DHT22;13241;51.208;4.432;2022-10-24T04:27:02;16.70;99.90
25300;DHT22;13241;51.208;4.432;2022-10-24T04:29:34;16.60;99.90
25300;DHT22;13241;51.208;4.432;2022-10-24T04:32:04;16.60;99.90
25300;DHT22;13241;51.208;4.432;2022-10-24T04:34:35;16.60;99.90
25300;DHT22;13241;51.208;4.432;2022-10-24T04:37:03;16.60;99.90
25300;DHT22;13241;51.208;4.432;2022-10-24T04:39:32;16.70;99.90
25300;DHT22;13241;51.208;4.432;2022-10-24T04:41:59;16.80;99.90
25300;DHT22;13241;51.208;4.432;2022-10-24T04:44:26;16.80;99.90
25300;DHT22;13241;51.208;4.432;2022-10-24T04:46:53;16.90;99.90
25300;DHT22;13241;51.208;4.432;2022-10-24T04:49:20;17.00;99.90
25300;DHT22;13241;51.208;4.432;2022-10-24T04:51:47;17.10;99.90
25300;DHT22;13241;51.208;4.432;2022-10-24T04:54:14;17.00;99.90
25300;DHT22;13241;51.208;4.432;2022-10-24T04:56:41;17.00;99.90
25300;DHT22;13241;51.208;4.432;2022-10-24T04:59:08;17.00;99.90
25300;DHT22;13241;51.208;4.432;2022-10-24T05:01:34;17.00;99.90
25300;DHT22;13241;51.208;4.432;2022-10-24T05:04:01;17.00;99.90
25300;DHT22;13241;51.208;4.432;2022-10-24T05:06:33;16.90;99.90
25300;DHT22;13241;51.208;4.432;2022-10-24T05:09:00;16.90;99.90
25300;DHT22;13241;51.208;4.432;2022-10-24T05:11:27;16.70;99.90
25300;DHT22;13241;51.208;4.432;2022-10-24T05:13:54;16.70;99.90
25300;DHT22;13241;51.208;4.432;2022-10-24T05:16:23;16.60;99.90
25300;DHT22;13241;51.208;4.432;2022-10-24T05:18:49;16.70;99.90
25300;DHT22;13241;51.208;4.432;2022-10-24T05:21:16;16.70;99.90
25300;DHT22;13241;51.208;4.432;2022-10-24T05:23:43;16.70;99.90
25300;DHT22;13241;51.208;4.432;2022-10-24T05:26:12;16.50;99.90
25300;DHT22;13241;51.208;4.432;2022-10-24T05:28:38;16.80;99.90
25300;DHT22;13241;51.208;4.432;2022-10-24T05:31:05;16.80;99.90
25300;DHT22;13241;51.208;4.432;2022-10-24T05:33:33;16.70;99.90
25300;DHT22;13241;51.208;4.432;2022-10-24T05:36:00;16.70;99.90
25300;DHT22;13241;51.208;4.432;2022-10-24T05:38:27;16.50;99.90
25300;DHT22;13241;51.208;4.432;2022-10-24T05:40:54;16.60;99.90
25300;DHT22;13241;51.208;4.432;2022-10-24T05:43:21;16.60;99.90
25300;DHT22;13241;51.208;4.432;2022-10-24T05:45:48;16.50;99.90
25300;DHT22;13241;51.208;4.432;2022-10-24T05:48:17;16.40;99.90
25300;DHT22;13241;51.208;4.432;2022-10-24T05:50:44;16.10;99.90
25300;DHT22;13241;51.208;4.432;2022-10-24T05:53:11;16.20;99.90
25300;DHT22;13241;51.208;4.432;2022-10-24T05:55:38;16.20;99.90
25300;DHT22;13241;51.208;4.432;2022-10-24T05:58:05;16.00;99.90
25300;DHT22;13241;51.208;4.432;2022-10-24T06:00:33;16.10;99.90
25300;DHT22;13241;51.208;4.432;2022-10-24T06:03:00;16.00;99.90
25300;DHT22;13241;51.208;4.432;2022-10-24T06:05:27;16.00;99.90
25300;DHT22;13241;51.208;4.432;2022-10-24T06:07:54;16.00;99.90
25300;DHT22;13241;51.208;4.432;2022-10-24T06:10:21;16.10;99.90
25300;DHT22;13241;51.208;4.432;2022-10-24T06:12:49;16.00;99.90
25300;DHT22;13241;51.208;4.432;2022-10-24T06:15:15;16.10;99.90
25300;DHT22;13241;51.208;4.432;2022-10-24T06:17:42;16.00;99.90
25300;DHT22;13241;51.208;4.432;2022-10-24T06:20:09;16.00;99.90
25300;DHT22;13241;51.208;4.432;2022-10-24T06:22:36;15.90;99.90
25300;DHT22;13241;51.208;4.432;2022-10-24T06:25:04;15.90;99.90
25300;DHT22;13241;51.208;4.432;2022-10-24T06:27:31;15.80;99.90
25300;DHT22;13241;51.208;4.432;2022-10-24T06:29:58;15.80;99.90
25300;DHT22;13241;51.208;4.432;2022-10-24T06:32:24;15.70;99.90
25300;DHT22;13241;51.208;4.432;2022-10-24T06:34:51;15.70;99.90
25300;DHT22;13241;51.208;4.432;2022-10-24T06:37:18;15.70;99.90
25300;DHT22;13241;51.208;4.432;2022-10-24T06:39:45;15.60;99.90
25300;DHT22;13241;51.208;4.432;2022-10-24T06:42:12;15.60;99.90
25300;DHT22;13241;51.208;4.432;2022-10-24T06:44:41;15.60;99.90
25300;DHT22;13241;51.208;4.432;2022-10-24T06:47:07;15.60;99.90
25300;DHT22;13241;51.208;4.432;2022-10-24T06:49:35;15.60;99.90
25300;DHT22;13241;51.208;4.432;2022-10-24T06:52:03;15.50;99.90
25300;DHT22;13241;51.208;4.432;2022-10-24T06:54:31;15.50;99.90
25300;DHT22;13241;51.208;4.432;2022-10-24T06:57:00;15.70;99.90
25300;DHT22;13241;51.208;4.432;2022-10-24T06:59:31;15.60;99.90
25300;DHT22;13241;51.208;4.432;2022-10-24T07:01:58;15.60;99.90
25300;DHT22;13241;51.208;4.432;2022-10-24T07:04:30;15.60;99.90
25300;DHT22;13241;51.208;4.432;2022-10-24T07:06:58;15.70;99.90
25300;DHT22;13241;51.208;4.432;2022-10-24T07:09:24;15.80;99.90
25300;DHT22;13241;51.208;4.432;2022-10-24T07:11:51;15.90;99.90
25300;DHT22;13241;51.208;4.432;2022-10-24T07:14:18;15.90;99.90
25300;DHT22;13241;51.208;4.432;2022-10-24T07:16:45;16.20;99.90
25300;DHT22;13241;51.208;4.432;2022-10-24T07:19:14;16.20;99.90
25300;DHT22;13241;51.208;4.432;2022-10-24T07:21:41;16.50;99.90
25300;DHT22;13241;51.208;4.432;2022-10-24T07:24:11;16.70;99.90
25300;DHT22;13241;51.208;4.432;2022-10-24T07:26:39;16.80;99.90
25300;DHT22;13241;51.208;4.432;2022-10-24T07:29:06;16.70;99.90
25300;DHT22;13241;51.208;4.432;2022-10-24T07:31:34;16.70;99.90
25300;DHT22;13241;51.208;4.432;2022-10-24T07:34:03;16.80;99.90
25300;DHT22;13241;51.208;4.432;2022-10-24T07:36:30;16.60;99.90
25300;DHT22;13241;51.208;4.432;2022-10-24T07:38:59;16.60;99.90
25300;DHT22;13241;51.208;4.432;2022-10-24T07:41:27;16.50;99.90
25300;DHT22;13241;51.208;4.432;2022-10-24T07:43:56;16.40;99.90
25300;DHT22;13241;51.208;4.432;2022-10-24T07:46:27;16.30;99.90
25300;DHT22;13241;51.208;4.432;2022-10-24T07:48:54;16.50;99.90
25300;DHT22;13241;51.208;4.432;2022-10-24T07:51:21;16.30;99.90
25300;DHT22;13241;51.208;4.432;2022-10-24T07:53:49;16.60;99.90
25300;DHT22;13241;51.208;4.432;2022-10-24T07:56:16;16.60;99.90
25300;DHT22;13241;51.208;4.432;2022-10-24T07:58:44;16.70;99.90
25300;DHT22;13241;51.208;4.432;2022-10-24T08:01:14;16.80;99.90
25300;DHT22;13241;51.208;4.432;2022-10-24T08:03:41;16.90;99.90
25300;DHT22;13241;51.208;4.432;2022-10-24T08:06:12;17.10;99.90
25300;DHT22;13241;51.208;4.432;2022-10-24T08:08:39;17.30;99.90
25300;DHT22;13241;51.208;4.432;2022-10-24T08:11:09;17.40;99.90
25300;DHT22;13241;51.208;4.432;2022-10-24T08:13:36;17.60;99.90
25300;DHT22;13241;51.208;4.432;2022-10-24T08:16:05;17.80;99.90
25300;DHT22;13241;51.208;4.432;2022-10-24T08:18:33;17.80;99.90
25300;DHT22;13241;51.208;4.432;2022-10-24T08:21:08;17.70;99.90
25300;DHT22;13241;51.208;4.432;2022-10-24T08:23:38;17.70;99.90
25300;DHT22;13241;51.208;4.432;2022-10-24T08:26:10;17.50;99.90
25300;DHT22;13241;51.208;4.432;2022-10-24T08:28:37;17.60;99.90
25300;DHT22;13241;51.208;4.432;2022-10-24T08:31:08;17.30;99.90
25300;DHT22;13241;51.208;4.432;2022-10-24T08:33:36;17.10;99.90
25300;DHT22;13241;51.208;4.432;2022-10-24T08:36:06;17.00;99.90
25300;DHT22;13241;51.208;4.432;2022-10-24T08:38:38;17.10;99.90
25300;DHT22;13241;51.208;4.432;2022-10-24T08:41:05;17.20;99.90
25300;DHT22;13241;51.208;4.432;2022-10-24T08:43:32;17.40;99.90
25300;DHT22;13241;51.208;4.432;2022-10-24T08:48:56;17.50;99.90
25300;DHT22;13241;51.208;4.432;2022-10-24T08:51:49;17.70;99.90
25300;DHT22;13241;51.208;4.432;2022-10-24T08:54:26;17.70;99.90
25300;DHT22;13241;51.208;4.432;2022-10-24T08:56:55;17.70;99.90
25300;DHT22;13241;51.208;4.432;2022-10-24T08:59:25;17.70;99.90
25300;DHT22;13241;51.208;4.432;2022-10-24T09:01:59;17.60;99.90
25300;DHT22;13241;51.208;4.432;2022-10-24T09:04:39;17.80;99.90
25300;DHT22;13241;51.208;4.432;2022-10-24T09:07:16;18.00;99.90
25300;DHT22;13241;51.208;4.432;2022-10-24T09:10:14;18.10;99.90
25300;DHT22;13241;51.208;4.432;2022-10-24T09:12:42;18.30;99.90
25300;DHT22;13241;51.208;4.432;2022-10-24T09:15:21;18.30;99.90
25300;DHT22;13241;51.208;4.432;2022-10-24T09:17:50;18.40;99.90
25300;DHT22;13241;51.208;4.432;2022-10-24T09:20:23;18.50;99.90
25300;DHT22;13241;51.208;4.432;2022-10-24T09:22:53;18.80;99.90
25300;DHT22;13241;51.208;4.432;2022-10-24T09:25:25;19.50;99.90
25300;DHT22;13241;51.208;4.432;2022-10-24T09:27:56;19.80;99.90
25300;DHT22;13241;51.208;4.432;2022-10-24T09:30:26;20.30;99.90
25300;DHT22;13241;51.208;4.432;2022-10-24T09:33:11;20.50;99.90
25300;DHT22;13241;51.208;4.432;2022-10-24T09:35:39;19.80;99.90
25300;DHT22;13241;51.208;4.432;2022-10-24T09:38:24;19.20;99.90
25300;DHT22;13241;51.208;4.432;2022-10-24T09:40:55;18.30;99.90
25300;DHT22;13241;51.208;4.432;2022-10-24T09:46:08;17.70;99.90
25300;DHT22;13241;51.208;4.432;2022-10-24T09:48:57;17.50;99.90
25300;DHT22;13241;51.208;4.432;2022-10-24T09:54:04;17.40;99.90
25300;DHT22;13241;51.208;4.432;2022-10-24T09:56:39;17.40;99.90
25300;DHT22;13241;51.208;4.432;2022-10-24T09:59:26;17.20;99.90
25300;DHT22;13241;51.208;4.432;2022-10-24T10:04:38;17.60;99.90
25300;DHT22;13241;51.208;4.432;2022-10-24T10:07:10;17.80;99.90
25300;DHT22;13241;51.208;4.432;2022-10-24T10:09:38;18.10;99.90
25300;DHT22;13241;51.208;4.432;2022-10-24T10:12:32;18.30;99.90
25300;DHT22;13241;51.208;4.432;2022-10-24T10:18:02;18.60;99.90
25300;DHT22;13241;51.208;4.432;2022-10-24T10:20:36;18.90;99.90
25300;DHT22;13241;51.208;4.432;2022-10-24T10:23:29;19.00;99.90
25300;DHT22;13241;51.208;4.432;2022-10-24T10:26:19;19.00;99.90
25300;DHT22;13241;51.208;4.432;2022-10-24T10:28:56;19.10;99.90
25300;DHT22;13241;51.208;4.432;2022-10-24T10:43:20;19.40;99.90
25300;DHT22;13241;51.208;4.432;2022-10-24T10:57:19;19.40;99.90
25300;DHT22;13241;51.208;4.432;2022-10-24T11:00:06;19.10;99.90
25300;DHT22;13241;51.208;4.432;2022-10-24T11:02:53;19.00;99.90
25300;DHT22;13241;51.208;4.432;2022-10-24T11:05:48;18.70;99.90
25300;DHT22;13241;51.208;4.432;2022-10-24T11:13:44;18.50;99.90
25300;DHT22;13241;51.208;4.432;2022-10-24T11:16:18;18.30;99.90
25300;DHT22;13241;51.208;4.432;2022-10-24T11:18:50;18.20;99.90
25300;DHT22;13241;51.208;4.432;2022-10-24T11:21:38;18.10;99.90
25300;DHT22;13241;51.208;4.432;2022-10-24T11:24:24;18.20;99.90
25300;DHT22;13241;51.208;4.432;2022-10-24T11:27:01;18.40;99.90
25300;DHT22;13241;51.208;4.432;2022-10-24T11:32:58;18.90;99.90
25300;DHT22;13241;51.208;4.432;2022-10-24T11:35:30;19.30;99.90
25300;DHT22;13241;51.208;4.432;2022-10-24T11:38:12;19.30;99.90
25300;DHT22;13241;51.208;4.432;2022-10-24T11:40:42;19.50;99.90
25300;DHT22;13241;51.208;4.432;2022-10-24T11:43:36;19.70;99.90
25300;DHT22;13241;51.208;4.432;2022-10-24T11:46:11;19.80;99.90
25300;DHT22;13241;51.208;4.432;2022-10-24T11:53:57;19.70;99.90
25300;DHT22;13241;51.208;4.432;2022-10-24T11:56:33;19.60;99.90
25300;DHT22;13241;51.208;4.432;2022-10-24T11:59:05;19.60;99.90
25300;DHT22;13241;51.208;4.432;2022-10-24T12:10:20;19.90;99.90
25300;DHT22;13241;51.208;4.432;2022-10-24T12:19:03;20.70;99.90
25300;DHT22;13241;51.208;4.432;2022-10-24T12:21:54;20.70;99.90
25300;DHT22;13241;51.208;4.432;2022-10-24T12:24:41;20.50;99.90
25300;DHT22;13241;51.208;4.432;2022-10-24T12:27:29;20.30;99.90
25300;DHT22;13241;51.208;4.432;2022-10-24T12:36:07;19.90;99.90
25300;DHT22;13241;51.208;4.432;2022-10-24T12:39:01;20.10;99.90
25300;DHT22;13241;51.208;4.432;2022-10-24T12:41:59;20.20;99.90
25300;DHT22;13241;51.208;4.432;2022-10-24T12:47:31;20.30;99.90
25300;DHT22;13241;51.208;4.432;2022-10-24T12:53:03;20.10;99.90
25300;DHT22;13241;51.208;4.432;2022-10-24T12:58:29;19.80;99.90
25300;DHT22;13241;51.208;4.432;2022-10-24T13:00:58;19.80;99.90
25300;DHT22;13241;51.208;4.432;2022-10-24T13:14:57;20.00;99.90
25300;DHT22;13241;51.208;4.432;2022-10-24T13:17:49;19.90;99.90
25300;DHT22;13241;51.208;4.432;2022-10-24T13:23:46;19.90;99.90
25300;DHT22;13241;51.208;4.432;2022-10-24T13:36:13;19.80;99.90
25300;DHT22;13241;51.208;4.432;2022-10-24T13:41:35;20.70;99.90
25300;DHT22;13241;51.208;4.432;2022-10-24T13:49:50;22.60;99.90
25300;DHT22;13241;51.208;4.432;2022-10-24T13:54:00;23.10;99.90
25300;DHT22;13241;51.208;4.432;2022-10-24T13:57:25;23.30;99.90
25300;DHT22;13241;51.208;4.432;2022-10-24T14:00:32;23.70;99.90
25300;DHT22;13241;51.208;4.432;2022-10-24T14:03:28;23.90;99.90
25300;DHT22;13241;51.208;4.432;2022-10-24T14:06:15;24.10;99.90
25300;DHT22;13241;51.208;4.432;2022-10-24T14:08:50;24.50;99.90
25300;DHT22;13241;51.208;4.432;2022-10-24T14:11:32;24.30;99.90
25300;DHT22;13241;51.208;4.432;2022-10-24T14:14:01;24.30;99.90
25300;DHT22;13241;51.208;4.432;2022-10-24T14:16:34;24.20;99.90
25300;DHT22;13241;51.208;4.432;2022-10-24T14:19:15;24.40;99.90
25300;DHT22;13241;51.208;4.432;2022-10-24T14:21:55;24.60;99.90
25300;DHT22;13241;51.208;4.432;2022-10-24T14:24:22;24.50;99.90
25300;DHT22;13241;51.208;4.432;2022-10-24T14:26:50;24.70;99.90
25300;DHT22;13241;51.208;4.432;2022-10-24T14:32:03;24.80;99.90
25300;DHT22;13241;51.208;4.432;2022-10-24T14:34:31;24.90;99.90
25300;DHT22;13241;51.208;4.432;2022-10-24T14:37:04;25.00;99.90
25300;DHT22;13241;51.208;4.432;2022-10-24T14:39:32;25.30;99.90
25300;DHT22;13241;51.208;4.432;2022-10-24T14:42:00;25.30;99.90
25300;DHT22;13241;51.208;4.432;2022-10-24T14:44:29;25.00;99.90
25300;DHT22;13241;51.208;4.432;2022-10-24T14:47:05;23.80;99.90
25300;DHT22;13241;51.208;4.432;2022-10-24T14:49:37;22.50;99.90
25300;DHT22;13241;51.208;4.432;2022-10-24T14:54:59;20.70;99.90
25300;DHT22;13241;51.208;4.432;2022-10-24T14:57:30;20.20;99.90
25300;DHT22;13241;51.208;4.432;2022-10-24T15:00:00;19.90;99.90
25300;DHT22;13241;51.208;4.432;2022-10-24T15:02:46;19.50;99.90
25300;DHT22;13241;51.208;4.432;2022-10-24T15:05:30;19.40;99.90
25300;DHT22;13241;51.208;4.432;2022-10-24T15:08:35;19.30;99.90
25300;DHT22;13241;51.208;4.432;2022-10-24T15:11:35;19.30;99.90
25300;DHT22;13241;51.208;4.432;2022-10-24T15:14:40;19.20;99.90
25300;DHT22;13241;51.208;4.432;2022-10-24T15:20:38;19.10;99.90
25300;DHT22;13241;51.208;4.432;2022-10-24T15:23:29;19.00;99.90
25300;DHT22;13241;51.208;4.432;2022-10-24T15:26:09;19.00;99.90
25300;DHT22;13241;51.208;4.432;2022-10-24T15:28:52;18.80;99.90
25300;DHT22;13241;51.208;4.432;2022-10-24T15:31:20;18.60;99.90
25300;DHT22;13241;51.208;4.432;2022-10-24T15:33:48;18.40;99.90
25300;DHT22;13241;51.208;4.432;2022-10-24T15:36:24;18.30;99.90
25300;DHT22;13241;51.208;4.432;2022-10-24T15:38:57;18.10;99.90
25300;DHT22;13241;51.208;4.432;2022-10-24T15:41:25;17.90;99.90
25300;DHT22;13241;51.208;4.432;2022-10-24T15:43:56;17.90;99.90
25300;DHT22;13241;51.208;4.432;2022-10-24T15:46:24;17.70;99.90
25300;DHT22;13241;51.208;4.432;2022-10-24T15:48:52;17.70;99.90
25300;DHT22;13241;51.208;4.432;2022-10-24T15:51:21;17.70;99.90
25300;DHT22;13241;51.208;4.432;2022-10-24T15:53:50;17.60;99.90
25300;DHT22;13241;51.208;4.432;2022-10-24T15:56:18;17.60;99.90
25300;DHT22;13241;51.208;4.432;2022-10-24T15:58:51;17.60;99.90
25300;DHT22;13241;51.208;4.432;2022-10-24T16:01:33;17.50;99.90
25300;DHT22;13241;51.208;4.432;2022-10-24T16:04:07;17.50;99.90
25300;DHT22;13241;51.208;4.432;2022-10-24T16:06:35;17.70;99.90
25300;DHT22;13241;51.208;4.432;2022-10-24T16:09:02;17.50;99.90
25300;DHT22;13241;51.208;4.432;2022-10-24T16:11:29;17.50;99.90
25300;DHT22;13241;51.208;4.432;2022-10-24T16:13:57;17.50;99.90
25300;DHT22;13241;51.208;4.432;2022-10-24T16:16:24;17.40;99.90
25300;DHT22;13241;51.208;4.432;2022-10-24T16:18:52;17.60;99.90
25300;DHT22;13241;51.208;4.432;2022-10-24T16:21:20;17.60;99.90
25300;DHT22;13241;51.208;4.432;2022-10-24T16:23:50;17.70;99.90
25300;DHT22;13241;51.208;4.432;2022-10-24T16:26:20;17.60;99.90
25300;DHT22;13241;51.208;4.432;2022-10-24T16:28:51;17.60;99.90
25300;DHT22;13241;51.208;4.432;2022-10-24T16:31:21;17.50;99.90
25300;DHT22;13241;51.208;4.432;2022-10-24T16:33:50;17.40;99.90
25300;DHT22;13241;51.208;4.432;2022-10-24T16:36:26;17.30;99.90
25300;DHT22;13241;51.208;4.432;2022-10-24T16:38:53;17.20;99.90
25300;DHT22;13241;51.208;4.432;2022-10-24T16:41:26;17.10;99.90
25300;DHT22;13241;51.208;4.432;2022-10-24T16:43:57;17.00;99.90
25300;DHT22;13241;51.208;4.432;2022-10-24T16:46:25;17.00;99.90
25300;DHT22;13241;51.208;4.432;2022-10-24T16:48:53;16.90;99.90
25300;DHT22;13241;51.208;4.432;2022-10-24T16:51:27;16.90;99.90
25300;DHT22;13241;51.208;4.432;2022-10-24T16:54:23;16.90;99.90
25300;DHT22;13241;51.208;4.432;2022-10-24T16:56:53;16.80;99.90
25300;DHT22;13241;51.208;4.432;2022-10-24T16:59:20;16.90;99.90
25300;DHT22;13241;51.208;4.432;2022-10-24T17:01:48;16.90;99.90
25300;DHT22;13241;51.208;4.432;2022-10-24T17:04:20;17.00;99.90
25300;DHT22;13241;51.208;4.432;2022-10-24T17:06:47;17.00;99.90
25300;DHT22;13241;51.208;4.432;2022-10-24T17:09:14;17.20;99.90
25300;DHT22;13241;51.208;4.432;2022-10-24T17:11:41;17.00;99.90
25300;DHT22;13241;51.208;4.432;2022-10-24T17:14:12;17.00;99.90
25300;DHT22;13241;51.208;4.432;2022-10-24T17:16:41;17.00;99.90
25300;DHT22;13241;51.208;4.432;2022-10-24T17:19:08;17.00;99.90
25300;DHT22;13241;51.208;4.432;2022-10-24T17:21:45;16.90;99.90
25300;DHT22;13241;51.208;4.432;2022-10-24T17:24:13;16.90;99.90
25300;DHT22;13241;51.208;4.432;2022-10-24T17:26:41;16.80;99.90
25300;DHT22;13241;51.208;4.432;2022-10-24T17:29:12;16.80;99.90
25300;DHT22;13241;51.208;4.432;2022-10-24T17:31:43;16.70;99.90
25300;DHT22;13241;51.208;4.432;2022-10-24T17:34:10;16.60;99.90
25300;DHT22;13241;51.208;4.432;2022-10-24T17:36:37;16.50;99.90
25300;DHT22;13241;51.208;4.432;2022-10-24T17:39:08;16.50;99.90
25300;DHT22;13241;51.208;4.432;2022-10-24T17:41:40;16.40;99.90
25300;DHT22;13241;51.208;4.432;2022-10-24T17:44:13;16.40;99.90
25300;DHT22;13241;51.208;4.432;2022-10-24T17:46:40;16.30;99.90
25300;DHT22;13241;51.208;4.432;2022-10-24T17:49:11;16.40;99.90
25300;DHT22;13241;51.208;4.432;2022-10-24T17:51:47;16.20;99.90
25300;DHT22;13241;51.208;4.432;2022-10-24T17:54:15;16.10;99.90
25300;DHT22;13241;51.208;4.432;2022-10-24T17:56:42;16.10;99.90
25300;DHT22;13241;51.208;4.432;2022-10-24T17:59:09;16.00;99.90
25300;DHT22;13241;51.208;4.432;2022-10-24T18:01:36;16.10;99.90
25300;DHT22;13241;51.208;4.432;2022-10-24T18:04:03;15.90;99.90
25300;DHT22;13241;51.208;4.432;2022-10-24T18:06:30;15.80;99.90
25300;DHT22;13241;51.208;4.432;2022-10-24T18:08:58;15.70;99.90
25300;DHT22;13241;51.208;4.432;2022-10-24T18:11:26;15.70;99.90
25300;DHT22;13241;51.208;4.432;2022-10-24T18:13:53;15.60;99.90
25300;DHT22;13241;51.208;4.432;2022-10-24T18:16:19;15.50;99.90
25300;DHT22;13241;51.208;4.432;2022-10-24T18:18:47;15.40;99.90
25300;DHT22;13241;51.208;4.432;2022-10-24T18:21:20;15.30;99.90